createdAt,value
2022-09-20T15:30:41.789Z,19.40
2022-09-20T15:33:10.026Z,19.70
2022-09-20T15:35:36.665Z,19.30
2022-09-20T15:38:03.663Z,19.00
2022-09-20T15:40:30.505Z,18.60
2022-09-20T15:42:59.383Z,18.50
2022-09-20T15:45:28.042Z,18.60
2022-09-20T15:47:55.412Z,18.20
2022-09-20T15:50:25.682Z,18.00
2022-09-20T15:52:54.850Z,17.90
2022-09-20T15:55:23.467Z,17.70
2022-09-20T15:57:50.383Z,17.60
2022-09-20T16:00:20.004Z,17.70
2022-09-20T16:02:49.928Z,17.40
2022-09-20T16:05:16.634Z,17.40
2022-09-20T16:07:43.262Z,17.40
2022-09-20T16:10:09.996Z,17.30
2022-09-20T16:12:36.605Z,17.20
2022-09-20T16:15:03.347Z,17.10
2022-09-20T16:17:48.668Z,17.00
2022-09-20T16:20:15.345Z,17.00
2022-09-20T16:22:41.985Z,16.90
2022-09-20T16:25:08.806Z,16.80
2022-09-20T16:27:35.422Z,16.90
2022-09-20T16:30:02.865Z,17.50
2022-09-20T16:32:29.464Z,17.50
2022-09-20T16:34:57.820Z,17.40
2022-09-20T16:37:24.873Z,17.50
2022-09-20T16:39:51.494Z,18.10
2022-09-20T16:42:18.475Z,18.30
2022-09-20T16:44:45.259Z,18.50
2022-09-20T16:47:18.074Z,18.40
2022-09-20T16:49:47.259Z,17.90
2022-09-20T16:52:14.168Z,17.70
2022-09-20T16:54:40.802Z,17.40
2022-09-20T16:57:07.840Z,17.20
2022-09-20T16:59:34.460Z,17.20
2022-09-20T17:02:01.166Z,17.20
2022-09-20T17:04:27.963Z,16.90
2022-09-20T17:06:54.689Z,16.80
2022-09-20T17:09:21.588Z,16.60
2022-09-20T17:11:50.304Z,16.50
2022-09-20T17:14:19.585Z,16.40
2022-09-20T17:16:50.226Z,16.30
2022-09-20T17:19:19.025Z,16.20
2022-09-20T17:21:51.195Z,16.10
2022-09-20T17:24:20.544Z,16.00
2022-09-20T17:26:48.932Z,15.80
2022-09-20T17:29:17.368Z,15.80
2022-09-20T17:31:51.585Z,15.60
2022-09-20T17:34:21.801Z,15.70
2022-09-20T17:36:50.232Z,15.60
2022-09-20T17:39:17.090Z,15.60
2022-09-20T17:41:46.751Z,15.60
2022-09-20T17:44:14.504Z,15.50
2022-09-20T17:46:43.426Z,15.50
2022-09-20T17:49:14.968Z,15.50
2022-09-20T17:51:44.256Z,15.50
2022-09-20T17:54:15.281Z,15.40
2022-09-20T17:56:43.632Z,15.40
2022-09-20T17:59:11.208Z,15.20
2022-09-20T18:01:38.683Z,15.00
2022-09-20T18:04:06.858Z,14.90
2022-09-20T18:06:40.865Z,14.80
2022-09-20T18:09:10.234Z,14.60
2022-09-20T18:11:43.988Z,14.70
2022-09-20T18:14:10.921Z,14.70
2022-09-20T18:16:38.667Z,14.70
2022-09-20T18:19:08.097Z,14.60
2022-09-20T18:21:36.420Z,14.50
2022-09-20T18:24:06.251Z,14.40
2022-09-20T18:26:33.562Z,14.30
2022-09-20T18:29:05.170Z,14.30
2022-09-20T18:31:43.166Z,14.20
2022-09-20T18:34:17.975Z,14.20
2022-09-20T18:36:47.770Z,14.20
2022-09-20T18:39:14.440Z,14.10
2022-09-20T18:41:41.085Z,14.20
2022-09-20T18:44:09.449Z,14.10
2022-09-20T18:46:38.143Z,14.10
2022-09-20T18:49:08.227Z,14.10
2022-09-20T18:51:39.447Z,13.90
2022-09-20T18:54:09.804Z,13.90
2022-09-20T18:56:41.264Z,13.80
2022-09-20T18:59:17.117Z,13.70
2022-09-20T19:02:28.135Z,13.80
2022-09-20T19:05:12.131Z,13.80
2022-09-20T19:08:10.949Z,13.80
2022-09-20T19:10:48.489Z,13.70
2022-09-20T19:13:41.044Z,13.60
2022-09-20T19:16:20.409Z,13.50
2022-09-20T19:19:02.571Z,13.40
2022-09-20T19:21:57.005Z,13.40
2022-09-20T19:24:45.808Z,13.20
2022-09-20T19:27:13.985Z,13.10
2022-09-20T19:29:41.335Z,13.10
2022-09-20T19:32:17.197Z,13.10
2022-09-20T19:34:45.053Z,13.20
2022-09-20T19:37:24.044Z,13.00
2022-09-20T19:40:11.654Z,13.00
2022-09-20T19:43:08.927Z,12.80
2022-09-20T19:45:35.855Z,12.90
2022-09-20T19:48:14.286Z,12.90
2022-09-20T19:50:46.342Z,13.10
2022-09-20T19:53:17.926Z,12.90
2022-09-20T19:55:48.031Z,13.00
2022-09-20T19:58:15.576Z,13.10
2022-09-20T20:00:46.837Z,12.90
2022-09-20T20:03:14.983Z,12.80
2022-09-20T20:05:50.173Z,12.80
2022-09-20T20:08:23.684Z,12.90
2022-09-20T20:11:02.168Z,12.80
2022-09-20T20:13:53.381Z,12.80
2022-09-20T20:16:28.784Z,12.90
2022-09-20T20:19:12.971Z,12.80
2022-09-20T20:21:47.421Z,12.70
2022-09-20T20:24:37.466Z,12.70
2022-09-20T20:27:04.309Z,12.60
2022-09-20T20:29:30.892Z,12.50
2022-09-20T20:31:57.566Z,12.50
2022-09-20T20:34:26.457Z,12.50
2022-09-20T20:37:00.742Z,12.50
2022-09-20T20:39:29.501Z,12.50
2022-09-20T20:42:01.790Z,12.40
2022-09-20T20:44:38.105Z,12.50
2022-09-20T20:47:06.599Z,12.40
2022-09-20T20:49:33.331Z,12.40
2022-09-20T20:52:04.516Z,12.50
2022-09-20T20:54:32.122Z,12.40
2022-09-20T20:56:59.163Z,12.40
2022-09-20T20:59:26.074Z,12.30
2022-09-20T21:01:52.775Z,12.30
2022-09-20T21:04:21.335Z,12.30
2022-09-20T21:06:47.927Z,12.20
2022-09-20T21:09:14.508Z,12.10
2022-09-20T21:11:43.983Z,12.20
2022-09-20T21:14:13.542Z,12.00
2022-09-20T21:16:42.942Z,12.10
2022-09-20T21:19:12.981Z,12.00
2022-09-20T21:21:42.539Z,12.00
2022-09-20T21:24:11.438Z,11.90
2022-09-20T21:26:39.170Z,12.10
2022-09-20T21:29:11.638Z,12.00
2022-09-20T21:31:40.521Z,12.00
2022-09-20T21:34:08.438Z,11.90
2022-09-20T21:36:36.727Z,11.90
2022-09-20T21:39:04.160Z,12.10
2022-09-20T21:41:32.899Z,12.00
2022-09-20T21:44:00.914Z,11.90
2022-09-20T21:46:33.932Z,11.80
2022-09-20T21:49:06.139Z,11.80
2022-09-20T21:51:33.528Z,11.80
2022-09-20T21:54:02.882Z,12.00
2022-09-20T21:56:41.150Z,11.80
2022-09-20T21:59:08.082Z,11.80
2022-09-20T22:01:40.121Z,11.60
2022-09-20T22:04:09.827Z,11.60
2022-09-20T22:06:42.085Z,11.50
2022-09-20T22:09:14.434Z,11.50
2022-09-20T22:11:43.511Z,11.50
2022-09-20T22:14:11.826Z,11.60
2022-09-20T22:16:40.833Z,11.60
2022-09-20T22:19:09.642Z,11.50
2022-09-20T22:21:44.637Z,11.50
2022-09-20T22:24:13.265Z,11.50
2022-09-20T22:26:43.012Z,11.60
2022-09-20T22:29:10.394Z,11.50
2022-09-20T22:31:45.061Z,11.50
2022-09-20T22:34:15.471Z,11.40
2022-09-20T22:36:42.720Z,11.40
2022-09-20T22:39:10.911Z,11.30
2022-09-20T22:41:39.115Z,11.40
2022-09-20T22:44:06.114Z,11.30
2022-09-20T22:46:33.810Z,11.10
2022-09-20T22:49:00.561Z,11.30
2022-09-20T22:51:30.705Z,11.20
2022-09-20T22:53:57.462Z,11.00
2022-09-20T22:56:28.061Z,10.90
2022-09-20T22:58:57.426Z,10.90
2022-09-20T23:01:27.360Z,11.00
2022-09-20T23:04:03.098Z,10.90
2022-09-20T23:06:54.523Z,11.00
2022-09-20T23:09:23.094Z,10.80
2022-09-20T23:11:50.166Z,10.90
2022-09-20T23:14:21.183Z,10.90
2022-09-20T23:16:49.322Z,11.00
2022-09-20T23:19:17.068Z,10.90
2022-09-20T23:21:44.615Z,10.90
2022-09-20T23:24:13.155Z,10.80
2022-09-20T23:26:41.504Z,10.70
2022-09-20T23:29:11.108Z,10.70
2022-09-20T23:31:39.259Z,10.70
2022-09-20T23:34:07.308Z,10.50
2022-09-20T23:36:37.072Z,10.70
2022-09-20T23:39:04.340Z,10.70
2022-09-20T23:41:31.129Z,10.70
2022-09-20T23:43:57.959Z,10.60
2022-09-20T23:46:26.588Z,10.70
2022-09-20T23:48:53.554Z,10.60
2022-09-20T23:51:23.536Z,10.70
2022-09-20T23:53:51.333Z,10.60
2022-09-20T23:56:19.005Z,10.70
2022-09-20T23:58:45.911Z,10.60
